Time;durP1;ratioP1;P1;durP2;ratioP2;P2;SDS_P1;SDS_P2;PMS_P1;PMS_P2;Temp;Humidity;BMP_temperature;BMP_pressure;BME280_temperature;BME280_humidity;BME280_pressure;Samples;Min_cycle;Max_cycle;Signal;HPM_P1;HPM_P2
2023/06/07 00:01:54;;;;;;;5.60;4.20;;;20.80;66.00;;;;;;5052114;28;20452;-43
2023/06/07 00:04:20;;;;;;;7.37;4.57;;;20.80;66.10;;;;;;5034133;28;20461;-43
2023/06/07 00:06:49;;;;;;;4.53;3.80;;;20.80;66.10;;;;;;5033875;28;20462;-47
2023/06/07 00:09:15;;;;;;;4.70;3.90;;;20.70;65.90;;;;;;5051516;28;20445;-47
2023/06/07 00:11:42;;;;;;;5.00;3.97;;;20.90;66.20;;;;;;5053590;28;20812;-44
2023/06/07 00:14:09;;;;;;;6.00;4.00;;;20.70;66.00;;;;;;5056037;28;20491;-45
2023/06/07 00:16:35;;;;;;;6.80;4.40;;;20.70;66.20;;;;;;5055715;28;20489;-48
2023/06/07 00:19:03;;;;;;;5.23;3.80;;;20.60;66.40;;;;;;5055651;28;20445;-45
2023/06/07 00:21:30;;;;;;;5.13;4.33;;;20.50;66.60;;;;;;5055886;28;20863;-47
2023/06/07 00:23:58;;;;;;;6.90;3.53;;;20.60;66.70;;;;;;5038127;28;20443;-49
2023/06/07 00:26:24;;;;;;;5.27;4.40;;;20.60;66.90;;;;;;5055781;28;20451;-50
2023/06/07 00:28:52;;;;;;;5.93;4.00;;;20.60;67.00;;;;;;5037582;28;20480;-49
2023/06/07 00:31:18;;;;;;;5.30;4.10;;;20.50;67.00;;;;;;5037748;28;20456;-50
2023/06/07 00:33:45;;;;;;;7.33;4.03;;;20.40;66.90;;;;;;5055659;28;20786;-50
2023/06/07 00:36:12;;;;;;;5.20;4.13;;;20.50;67.10;;;;;;5037584;28;20482;-49
2023/06/07 00:38:38;;;;;;;4.63;3.80;;;20.40;67.10;;;;;;5055377;28;20806;-50
2023/06/07 00:41:06;;;;;;;5.90;4.30;;;20.40;67.20;;;;;;5055629;28;20438;-50
2023/06/07 00:43:34;;;;;;;4.70;4.03;;;20.40;67.20;;;;;;5037607;28;20443;-49
2023/06/07 00:46:01;;;;;;;5.63;3.70;;;20.40;67.20;;;;;;5037251;28;20471;-48
2023/06/07 00:48:28;;;;;;;5.93;3.60;;;20.30;67.30;;;;;;5054989;28;20428;-48
2023/06/07 00:50:55;;;;;;;6.00;4.27;;;20.30;67.30;;;;;;5055454;28;20441;-49
2023/06/07 00:53:22;;;;;;;8.73;4.40;;;20.50;67.60;;;;;;5037412;28;20440;-49
2023/06/07 00:55:49;;;;;;;4.90;4.40;;;20.40;67.70;;;;;;5055106;28;20484;-49
2023/06/07 00:58:17;;;;;;;5.23;4.07;;;20.10;67.30;;;;;;5037011;28;20454;-50
2023/06/07 01:00:45;;;;;;;6.63;4.67;;;20.00;67.30;;;;;;5055216;28;20910;-50
2023/06/07 01:03:13;;;;;;;6.70;4.90;;;20.30;67.60;;;;;;5055122;28;20531;-49
2023/06/07 01:05:41;;;;;;;4.23;3.70;;;20.30;67.50;;;;;;5037176;28;20469;-50
2023/06/07 01:08:09;;;;;;;4.37;3.97;;;20.30;67.50;;;;;;5054710;28;20467;-50
2023/06/07 01:10:37;;;;;;;6.30;3.90;;;20.30;67.50;;;;;;5037196;28;20497;-49
2023/06/07 01:13:05;;;;;;;5.50;4.70;;;20.30;67.50;;;;;;5054995;28;20439;-50
2023/06/07 01:15:33;;;;;;;6.20;4.30;;;20.20;67.40;;;;;;5054643;28;20569;-50
2023/06/07 01:18:01;;;;;;;4.83;3.90;;;20.20;67.40;;;;;;5054916;28;20435;-49
2023/06/07 01:20:29;;;;;;;6.23;4.17;;;20.20;67.40;;;;;;5054383;28;20483;-48
2023/06/07 01:22:58;;;;;;;5.73;3.67;;;20.20;67.50;;;;;;5054979;28;20433;-49
2023/06/07 01:25:27;;;;;;;4.90;3.70;;;20.30;67.70;;;;;;5054735;28;20456;-48
2023/06/07 01:27:56;;;;;;;5.90;4.10;;;19.90;67.30;;;;;;5036782;28;20451;-49
2023/06/07 01:30:24;;;;;;;4.40;4.00;;;20.10;67.60;;;;;;5036174;28;20463;-50
2023/06/07 01:32:52;;;;;;;4.77;4.33;;;20.00;67.50;;;;;;5036575;28;20443;-50
2023/06/07 01:35:20;;;;;;;7.10;5.80;;;20.10;67.60;;;;;;5054521;28;20529;-49
2023/06/07 01:37:47;;;;;;;6.13;4.70;;;20.00;67.50;;;;;;5036761;28;20448;-50
2023/06/07 01:40:15;;;;;;;7.67;3.50;;;19.90;67.50;;;;;;5054155;28;20473;-49
2023/06/07 01:42:44;;;;;;;4.80;4.00;;;20.10;67.80;;;;;;5054582;28;20470;-50
2023/06/07 01:45:11;;;;;;;5.17;3.90;;;20.10;67.90;;;;;;5054318;28;20462;-49
2023/06/07 01:47:38;;;;;;;6.97;4.50;;;20.00;67.80;;;;;;5036822;28;20468;-50
2023/06/07 01:50:06;;;;;;;6.93;4.10;;;19.70;67.50;;;;;;5054192;28;20447;-48
2023/06/07 01:52:32;;;;;;;5.63;4.40;;;20.00;67.90;;;;;;5036826;28;20501;-51
2023/06/07 01:55:00;;;;;;;6.83;4.00;;;19.90;67.90;;;;;;5054430;28;20921;-48
2023/06/07 01:57:38;;;;;;;4.67;3.30;;;19.90;68.00;;;;;;5054433;28;20431;-48
2023/06/07 02:00:17;;;;;;;5.17;3.60;;;19.90;67.90;;;;;;5036161;28;20559;-49
2023/06/07 02:02:49;;;;;;;4.20;3.63;;;19.90;67.80;;;;;;5036365;28;21058;-51
2023/06/07 02:05:20;;;;;;;6.77;4.37;;;19.90;67.80;;;;;;5054055;28;20581;-50
2023/06/07 02:07:49;;;;;;;4.67;3.70;;;19.90;67.70;;;;;;5053960;28;20434;-50
2023/06/07 02:10:21;;;;;;;4.50;3.80;;;19.90;67.70;;;;;;5053586;28;20489;-48
2023/06/07 02:12:50;;;;;;;7.20;4.20;;;19.70;67.50;;;;;;5036038;28;20811;-49
2023/06/07 02:15:18;;;;;;;4.57;3.70;;;19.80;67.40;;;;;;5035845;28;20467;-49
2023/06/07 02:17:57;;;;;;;5.07;3.60;;;19.80;67.50;;;;;;5035886;28;20453;-50
2023/06/07 02:20:25;;;;;;;5.33;3.57;;;19.70;67.40;;;;;;5035837;28;20950;-49
2023/06/07 02:22:55;;;;;;;7.73;3.87;;;19.80;67.50;;;;;;5053843;28;20435;-48
2023/06/07 02:25:23;;;;;;;6.70;4.33;;;19.50;67.20;;;;;;5053939;28;20799;-48
2023/06/07 02:27:51;;;;;;;7.33;4.60;;;19.70;67.50;;;;;;5053809;28;20513;-47
2023/06/07 02:30:19;;;;;;;5.30;4.10;;;19.70;67.30;;;;;;5035600;28;20450;-48
2023/06/07 02:32:48;;;;;;;5.13;4.50;;;19.60;67.30;;;;;;5035905;28;20533;-49
2023/06/07 02:35:16;;;;;;;4.60;4.10;;;19.40;67.10;;;;;;5053013;28;20472;-48
2023/06/07 02:37:43;;;;;;;6.30;4.07;;;19.60;67.30;;;;;;5053881;28;20438;-48
2023/06/07 02:40:11;;;;;;;5.43;3.93;;;19.40;66.90;;;;;;5053194;28;20442;-48
2023/06/07 02:42:38;;;;;;;6.20;4.30;;;19.60;67.10;;;;;;5035531;28;20504;-49
2023/06/07 02:45:06;;;;;;;8.33;4.13;;;19.80;67.30;;;;;;5035172;28;20826;-48
2023/06/07 02:47:34;;;;;;;5.10;3.87;;;19.60;67.10;;;;;;5053252;28;20995;-49
2023/06/07 02:50:02;;;;;;;8.23;4.27;;;19.60;67.10;;;;;;5034921;28;20478;-49
2023/06/07 02:52:29;;;;;;;4.93;3.70;;;19.30;66.60;;;;;;5035217;28;20454;-49
2023/06/07 02:54:56;;;;;;;7.50;3.93;;;19.50;66.70;;;;;;5035151;28;20450;-49
2023/06/07 02:57:22;;;;;;;4.60;3.67;;;19.30;66.40;;;;;;5035117;28;20478;-49
2023/06/07 02:59:49;;;;;;;4.83;3.93;;;19.60;66.70;;;;;;5052582;28;20430;-47
2023/06/07 03:02:21;;;;;;;4.73;4.33;;;19.60;66.50;;;;;;5035124;28;20451;-49
2023/06/07 03:04:52;;;;;;;4.30;3.60;;;19.50;66.30;;;;;;5034983;28;20962;-49
2023/06/07 03:07:22;;;;;;;5.53;3.97;;;19.60;66.30;;;;;;5035065;28;20815;-49
2023/06/07 03:09:49;;;;;;;6.07;4.20;;;19.50;66.20;;;;;;5034602;28;20537;-49
2023/06/07 03:12:20;;;;;;;4.70;3.37;;;19.40;65.90;;;;;;5034790;28;20542;-50
2023/06/07 03:14:51;;;;;;;6.23;3.70;;;19.60;66.10;;;;;;5034658;28;20459;-50
2023/06/07 03:17:18;;;;;;;4.67;4.20;;;19.50;65.90;;;;;;5034615;28;20480;-48
2023/06/07 03:19:49;;;;;;;5.37;3.73;;;19.50;65.90;;;;;;5052341;28;20426;-50
2023/06/07 03:22:21;;;;;;;5.27;3.90;;;19.50;66.00;;;;;;5034863;28;20573;-49
2023/06/07 03:24:49;;;;;;;4.33;3.23;;;19.50;66.10;;;;;;5034668;28;20439;-49
2023/06/07 03:27:17;;;;;;;4.53;4.13;;;19.60;66.20;;;;;;5034493;28;20449;-48
2023/06/07 03:29:44;;;;;;;5.03;4.20;;;19.80;66.50;;;;;;5052125;28;20893;-50
2023/06/07 03:32:11;;;;;;;8.33;3.90;;;19.20;65.80;;;;;;5034550;28;20497;-50
2023/06/07 03:34:41;;;;;;;7.10;4.47;;;20.00;66.70;;;;;;5034407;28;20577;-50
2023/06/07 03:37:09;;;;;;;4.90;3.67;;;19.90;66.60;;;;;;5034469;28;21033;-50
2023/06/07 03:39:37;;;;;;;5.20;4.10;;;19.70;66.40;;;;;;5051868;28;20436;-50
2023/06/07 03:42:06;;;;;;;5.73;4.20;;;19.50;66.10;;;;;;5034269;28;20864;-49
2023/06/07 03:44:33;;;;;;;7.43;4.43;;;19.50;66.10;;;;;;5034173;28;20474;-50
2023/06/07 03:47:00;;;;;;;5.20;4.10;;;19.50;66.00;;;;;;5051071;28;20982;-50
2023/06/07 03:49:28;;;;;;;6.00;4.20;;;19.90;66.60;;;;;;5051643;28;20460;-50
2023/06/07 03:51:56;;;;;;;5.50;4.10;;;19.70;66.40;;;;;;5034146;28;20458;-49
2023/06/07 03:54:24;;;;;;;6.77;4.40;;;19.30;66.00;;;;;;5034133;28;20447;-50
2023/06/07 03:56:52;;;;;;;21.47;5.80;;;19.30;66.00;;;;;;5051864;28;20879;-51
2023/06/07 03:59:20;;;;;;;10.07;4.40;;;19.60;66.40;;;;;;5033684;28;20477;-49
2023/06/07 04:01:49;;;;;;;7.77;4.17;;;19.60;66.40;;;;;;5034024;28;20550;-48
2023/06/07 04:04:16;;;;;;;4.47;3.87;;;19.30;66.00;;;;;;5034027;28;20446;-49
2023/06/07 04:06:43;;;;;;;7.40;4.57;;;19.70;66.30;;;;;;5033806;28;20471;-49
2023/06/07 04:09:10;;;;;;;6.13;4.13;;;19.30;65.70;;;;;;5051398;28;20488;-49
2023/06/07 04:11:37;;;;;;;5.50;4.17;;;19.70;66.00;;;;;;5033766;28;20452;-47
2023/06/07 04:14:05;;;;;;;5.10;4.40;;;19.80;66.10;;;;;;5033822;28;20451;-50
2023/06/07 04:16:31;;;;;;;4.77;4.20;;;19.90;66.10;;;;;;5051808;28;20479;-49
2023/06/07 04:18:59;;;;;;;7.23;4.80;;;19.90;65.90;;;;;;5033650;28;20450;-49
2023/06/07 04:21:28;;;;;;;6.73;4.60;;;19.90;66.00;;;;;;5033734;28;20489;-48
2023/06/07 04:23:56;;;;;;;5.30;4.13;;;19.80;65.70;;;;;;5033975;28;20450;-49
2023/06/07 04:26:24;;;;;;;7.33;4.40;;;19.90;65.60;;;;;;5033763;28;20852;-50
2023/06/07 04:28:56;;;;;;;6.40;4.70;;;20.00;65.70;;;;;;5033578;28;20974;-48
2023/06/07 04:31:29;;;;;;;8.70;4.73;;;19.90;65.50;;;;;;5033667;28;20546;-50
2023/06/07 04:33:57;;;;;;;5.97;4.10;;;20.00;65.40;;;;;;5033702;28;20834;-49
2023/06/07 04:36:25;;;;;;;7.23;4.70;;;19.80;64.90;;;;;;5033413;28;20463;-49
2023/06/07 04:38:52;;;;;;;8.00;4.07;;;20.00;65.00;;;;;;5033120;28;20823;-48
2023/06/07 04:41:19;;;;;;;4.57;4.10;;;20.10;65.10;;;;;;5033487;28;20553;-50
2023/06/07 04:43:50;;;;;;;5.50;4.00;;;20.30;65.00;;;;;;5033488;28;20454;-48
2023/06/07 04:46:22;;;;;;;7.93;4.53;;;20.10;64.30;;;;;;5033500;28;20478;-50
2023/06/07 04:48:51;;;;;;;11.20;4.43;;;20.10;64.10;;;;;;5033044;28;20455;-50
2023/06/07 04:51:20;;;;;;;5.03;3.70;;;20.20;64.20;;;;;;5033592;28;20457;-50
2023/06/07 04:53:49;;;;;;;5.63;3.97;;;20.20;64.00;;;;;;5033620;28;20474;-50
2023/06/07 04:56:22;;;;;;;7.53;4.97;;;19.90;63.50;;;;;;5033565;28;20507;-48
2023/06/07 04:58:52;;;;;;;7.10;3.90;;;20.40;64.00;;;;;;5036366;28;20477;-49
2023/06/07 05:01:19;;;;;;;6.33;3.77;;;20.40;63.70;;;;;;5037196;28;20548;-49
2023/06/07 05:03:46;;;;;;;7.47;4.37;;;20.40;63.60;;;;;;5037281;28;20448;-47
2023/06/07 05:06:18;;;;;;;6.77;3.87;;;20.50;63.30;;;;;;5037238;28;20468;-48
2023/06/07 05:08:47;;;;;;;8.07;4.27;;;20.60;63.10;;;;;;5036915;28;20442;-49
2023/06/07 05:11:14;;;;;;;4.83;3.90;;;20.40;62.60;;;;;;5037116;28;20458;-48
2023/06/07 05:13:41;;;;;;;6.90;4.00;;;20.70;62.50;;;;;;5036755;28;20449;-49
2023/06/07 05:16:15;;;;;;;5.80;4.10;;;20.80;62.40;;;;;;5036864;28;20499;-49
2023/06/07 05:18:42;;;;;;;6.50;4.33;;;20.80;62.20;;;;;;5036670;28;20454;-49
2023/06/07 05:21:09;;;;;;;5.40;4.33;;;20.70;61.80;;;;;;5036696;28;20451;-49
2023/06/07 05:23:37;;;;;;;6.67;3.20;;;20.90;61.50;;;;;;5054733;28;20944;-49
2023/06/07 05:26:04;;;;;;;14.70;4.00;;;21.00;60.90;;;;;;5036725;28;20472;-49
2023/06/07 05:28:32;;;;;;;11.33;4.20;;;21.00;60.50;;;;;;5054541;28;20905;-48
2023/06/07 05:31:01;;;;;;;8.57;4.67;;;21.10;60.60;;;;;;5036876;28;20423;-50
2023/06/07 05:33:30;;;;;;;5.53;4.20;;;21.20;60.40;;;;;;5036719;28;20503;-48
2023/06/07 05:35:58;;;;;;;5.53;4.40;;;21.40;60.30;;;;;;5036340;28;20576;-50
2023/06/07 05:38:24;;;;;;;5.33;4.30;;;21.40;59.80;;;;;;5035591;28;20480;-50
2023/06/07 05:40:54;;;;;;;7.07;3.53;;;21.50;59.80;;;;;;5036080;28;20448;-50
2023/06/07 05:43:20;;;;;;;6.23;4.43;;;21.60;59.70;;;;;;5036287;28;20450;-50
2023/06/07 05:45:48;;;;;;;8.47;3.80;;;21.50;59.60;;;;;;5036291;28;20485;-47
2023/06/07 05:48:15;;;;;;;5.20;4.17;;;21.50;59.60;;;;;;5053819;28;20954;-44
2023/06/07 05:50:41;;;;;;;9.00;4.87;;;21.60;59.60;;;;;;5036056;28;20454;-46
2023/06/07 05:53:08;;;;;;;6.47;4.37;;;21.60;59.50;;;;;;5053942;28;20449;-46
2023/06/07 05:55:35;;;;;;;5.63;4.37;;;21.40;59.20;;;;;;5053887;28;20786;-44
2023/06/07 05:58:03;;;;;;;5.77;4.10;;;21.60;59.40;;;;;;5053709;28;20994;-47
2023/06/07 06:00:31;;;;;;;5.90;4.10;;;21.20;59.00;;;;;;5053374;28;20434;-46
2023/06/07 06:03:00;;;;;;;5.90;3.90;;;21.70;59.20;;;;;;5053732;28;20449;-45
2023/06/07 06:05:28;;;;;;;5.33;4.20;;;21.60;58.90;;;;;;5053664;28;20460;-46
2023/06/07 06:07:55;;;;;;;6.63;4.17;;;21.80;58.60;;;;;;5053588;28;20450;-45
2023/06/07 06:10:22;;;;;;;6.30;4.03;;;21.70;58.60;;;;;;5052042;28;20500;-47
2023/06/07 06:12:49;;;;;;;8.40;4.63;;;21.60;58.00;;;;;;5053512;28;20434;-45
2023/06/07 06:15:17;;;;;;;5.63;4.50;;;21.40;57.90;;;;;;5053446;28;20453;-46
2023/06/07 06:17:43;;;;;;;7.83;4.43;;;21.70;57.90;;;;;;5053098;28;20528;-44
2023/06/07 06:20:12;;;;;;;7.03;3.70;;;21.70;58.00;;;;;;5052615;28;20461;-46
2023/06/07 06:22:38;;;;;;;8.43;4.67;;;21.80;58.00;;;;;;5035112;28;20497;-45
2023/06/07 06:25:06;;;;;;;9.13;3.93;;;21.80;57.70;;;;;;5035115;28;20453;-45
2023/06/07 06:27:32;;;;;;;5.93;4.40;;;21.40;56.90;;;;;;5053239;28;20430;-46
2023/06/07 06:29:59;;;;;;;5.03;4.30;;;21.90;57.30;;;;;;5052721;28;20442;-45
2023/06/07 06:32:27;;;;;;;9.23;4.70;;;21.80;57.20;;;;;;5053114;28;20444;-45
2023/06/07 06:34:53;;;;;;;6.00;4.00;;;22.10;57.50;;;;;;5053058;28;20540;-46
2023/06/07 06:37:20;;;;;;;4.70;4.00;;;22.20;57.10;;;;;;5052838;28;20492;-48
2023/06/07 06:39:48;;;;;;;3.80;3.20;;;22.20;56.80;;;;;;5052766;28;20773;-46
2023/06/07 06:42:15;;;;;;;5.87;3.97;;;22.30;56.90;;;;;;5053106;28;20551;-46
2023/06/07 06:45:02;;;;;;;9.33;4.50;;;22.40;56.70;;;;;;5034893;28;20471;-45
2023/06/07 06:47:30;;;;;;;7.03;4.37;;;22.10;56.30;;;;;;5052629;28;20486;-45
2023/06/07 06:49:59;;;;;;;9.63;4.40;;;22.50;56.40;;;;;;5052348;28;20522;-50
2023/06/07 06:52:25;;;;;;;7.43;3.20;;;22.50;56.30;;;;;;5052542;28;20421;-44
2023/06/07 06:54:52;;;;;;;7.77;3.60;;;22.60;55.30;;;;;;5052597;28;20779;-47
2023/06/07 06:57:19;;;;;;;5.27;3.37;;;22.60;55.10;;;;;;5052629;28;20562;-44
2023/06/07 06:59:46;;;;;;;7.50;3.87;;;22.60;54.50;;;;;;5051889;28;20438;-45
2023/06/07 07:02:12;;;;;;;12.13;3.93;;;22.70;54.60;;;;;;5034537;28;20448;-44
2023/06/07 07:04:41;;;;;;;4.80;3.43;;;22.80;54.60;;;;;;5052767;28;20485;-45
2023/06/07 07:07:07;;;;;;;8.07;4.43;;;22.90;54.20;;;;;;5052321;28;20454;-44
2023/06/07 07:09:34;;;;;;;8.50;3.53;;;22.90;53.60;;;;;;5051817;28;20508;-46
2023/06/07 07:12:00;;;;;;;4.70;2.93;;;22.70;53.10;;;;;;5052424;28;20436;-45
2023/06/07 07:14:27;;;;;;;5.00;2.80;;;23.10;53.10;;;;;;5052266;28;20507;-46
2023/06/07 07:16:54;;;;;;;9.23;3.60;;;23.20;52.90;;;;;;5052307;28;20973;-44
2023/06/07 07:19:20;;;;;;;4.97;3.40;;;23.20;53.00;;;;;;5051906;28;20420;-45
2023/06/07 07:21:48;;;;;;;11.60;3.90;;;23.20;53.00;;;;;;5052233;28;20442;-44
2023/06/07 07:24:15;;;;;;;10.63;3.67;;;23.30;53.30;;;;;;5052054;28;20546;-48
2023/06/07 07:26:42;;;;;;;5.50;3.63;;;23.30;53.50;;;;;;5051833;28;20457;-45
2023/06/07 07:29:08;;;;;;;10.43;3.67;;;23.10;53.50;;;;;;5051597;28;20930;-45
2023/06/07 07:31:35;;;;;;;7.40;4.00;;;23.40;53.80;;;;;;5052203;28;20441;-45
2023/06/07 07:34:02;;;;;;;5.00;3.77;;;23.50;53.50;;;;;;5051829;28;20788;-46
2023/06/07 07:36:29;;;;;;;11.53;3.93;;;23.50;52.70;;;;;;5051805;28;20515;-45
2023/06/07 07:38:59;;;;;;;5.57;4.10;;;23.60;52.80;;;;;;5051139;28;20489;-48
2023/06/07 07:41:26;;;;;;;8.77;3.17;;;23.60;52.30;;;;;;5051417;28;21016;-48
2023/06/07 07:43:52;;;;;;;6.67;3.47;;;23.60;52.30;;;;;;5051568;28;21012;-45
2023/06/07 07:46:19;;;;;;;5.70;3.73;;;23.60;52.40;;;;;;5051662;28;20464;-44
2023/06/07 07:48:45;;;;;;;6.40;4.27;;;23.60;52.40;;;;;;5051679;28;20450;-44
2023/06/07 07:51:13;;;;;;;11.70;3.93;;;23.60;52.20;;;;;;5051539;28;20486;-45
2023/06/07 07:53:41;;;;;;;7.70;4.30;;;23.60;52.60;;;;;;5051514;28;20465;-43
2023/06/07 07:56:10;;;;;;;7.87;3.80;;;23.60;53.00;;;;;;5051632;28;20491;-45
2023/06/07 07:58:37;;;;;;;7.70;4.10;;;23.80;53.10;;;;;;5051511;28;20481;-45
2023/06/07 08:01:04;;;;;;;9.07;4.80;;;23.40;52.80;;;;;;5051857;28;20485;-43
2023/06/07 08:03:30;;;;;;;7.23;4.20;;;23.50;53.00;;;;;;5051596;28;20470;-47
2023/06/07 08:05:57;;;;;;;9.17;4.47;;;23.60;53.40;;;;;;5051405;28;20456;-46
2023/06/07 08:08:24;;;;;;;5.17;4.13;;;23.60;53.30;;;;;;5051141;28;20487;-46
2023/06/07 08:10:50;;;;;;;5.83;4.03;;;23.70;53.30;;;;;;5051375;28;20429;-46
2023/06/07 08:13:18;;;;;;;8.10;3.70;;;23.70;53.10;;;;;;5051437;28;20438;-43
2023/06/07 08:15:47;;;;;;;7.93;3.40;;;23.80;53.30;;;;;;5051360;28;20457;-47
2023/06/07 08:18:13;;;;;;;5.43;3.90;;;23.50;53.10;;;;;;5050742;28;20485;-45
2023/06/07 08:20:40;;;;;;;7.70;3.90;;;23.80;53.10;;;;;;5051272;28;20440;-45
2023/06/07 08:23:07;;;;;;;5.80;4.20;;;23.90;52.90;;;;;;5051112;28;20432;-46
2023/06/07 08:25:33;;;;;;;14.27;4.47;;;23.90;52.50;;;;;;5051563;28;20852;-45
2023/06/07 08:28:00;;;;;;;5.70;3.37;;;23.80;52.20;;;;;;5051349;28;20436;-46
2023/06/07 08:30:28;;;;;;;5.75;4.00;;;23.70;51.90;;;;;;5050535;28;20778;-48
2023/06/07 08:32:54;;;;;;;5.70;3.60;;;24.30;51.50;;;;;;5053514;28;20199;-45
2023/06/07 08:35:21;;;;;;;3.77;3.30;;;24.30;51.70;;;;;;5055279;28;20864;-45
2023/06/07 08:37:48;;;;;;;8.60;3.87;;;24.30;51.60;;;;;;5055037;28;20478;-45
2023/06/07 08:40:18;;;;;;;4.60;4.07;;;24.30;51.50;;;;;;5054986;28;20441;-45
2023/06/07 08:42:44;;;;;;;9.93;4.23;;;24.40;51.30;;;;;;5055302;28;20434;-45
2023/06/07 08:45:11;;;;;;;9.53;3.27;;;24.50;51.50;;;;;;5054801;28;20464;-46
2023/06/07 08:47:43;;;;;;;4.33;3.60;;;24.50;51.10;;;;;;5055401;28;20442;-45
2023/06/07 08:50:13;;;;;;;5.27;2.97;;;24.60;50.70;;;;;;5055314;28;20809;-45
2023/06/07 08:52:41;;;;;;;6.40;3.33;;;24.70;50.50;;;;;;5055060;28;20911;-46
2023/06/07 08:55:11;;;;;;;11.67;3.27;;;24.70;49.70;;;;;;5054998;28;20461;-46
2023/06/07 08:57:38;;;;;;;6.03;3.33;;;24.80;49.60;;;;;;5036977;28;20460;-47
2023/06/07 09:00:08;;;;;;;5.60;3.70;;;24.90;49.80;;;;;;5054608;28;20832;-45
2023/06/07 09:02:35;;;;;;;4.20;2.90;;;25.00;49.80;;;;;;5054901;28;20442;-45
2023/06/07 09:05:05;;;;;;;4.27;3.10;;;25.00;49.50;;;;;;5054825;28;20435;-46
2023/06/07 09:07:32;;;;;;;10.20;3.60;;;25.00;49.60;;;;;;5055080;28;20435;-46
2023/06/07 09:09:59;;;;;;;8.80;3.80;;;25.10;49.50;;;;;;5054405;28;20429;-44
2023/06/07 09:12:26;;;;;;;6.37;3.23;;;25.10;49.70;;;;;;5055090;28;20963;-47
2023/06/07 09:14:54;;;;;;;8.07;3.23;;;25.20;50.00;;;;;;5036946;28;20442;-45
2023/06/07 09:17:22;;;;;;;4.07;3.20;;;25.30;49.50;;;;;;5054761;28;20444;-47
2023/06/07 09:19:49;;;;;;;4.80;3.70;;;25.40;49.40;;;;;;5054336;28;21035;-44
2023/06/07 09:22:24;;;;;;;5.80;3.13;;;25.50;49.70;;;;;;5054611;28;20445;-47
2023/06/07 09:24:51;;;;;;;5.57;3.20;;;25.60;49.50;;;;;;5036100;28;20982;-45
2023/06/07 09:27:28;;;;;;;7.30;3.10;;;25.50;49.40;;;;;;5054904;28;20931;-48
2023/06/07 09:30:03;;;;;;;6.53;3.23;;;25.40;49.00;;;;;;5054014;28;20496;-45
2023/06/07 09:32:35;;;;;;;4.77;3.47;;;25.60;49.40;;;;;;5054382;28;20449;-43
2023/06/07 09:35:12;;;;;;;6.80;3.20;;;25.70;49.10;;;;;;5053983;28;20435;-44
2023/06/07 09:37:44;;;;;;;4.13;3.33;;;25.70;49.00;;;;;;5054229;28;20811;-47
2023/06/07 09:40:13;;;;;;;4.33;3.50;;;25.60;49.10;;;;;;5053808;28;20435;-47
2023/06/07 09:42:40;;;;;;;8.03;3.37;;;25.60;49.40;;;;;;5054301;28;20549;-46
2023/06/07 09:45:12;;;;;;;3.47;3.00;;;25.60;49.70;;;;;;5052238;28;20509;-46
2023/06/07 09:47:40;;;;;;;6.57;4.07;;;25.50;49.60;;;;;;5054094;28;20928;-45
2023/06/07 09:50:07;;;;;;;9.03;3.67;;;25.40;49.80;;;;;;5053667;28;20434;-46
2023/06/07 09:52:34;;;;;;;7.43;3.60;;;25.30;49.90;;;;;;5054039;28;20781;-45
2023/06/07 09:55:02;;;;;;;4.77;3.60;;;25.30;50.10;;;;;;5053030;28;20441;-47
2023/06/07 09:57:31;;;;;;;4.33;3.40;;;25.30;50.10;;;;;;5053752;28;20952;-46
2023/06/07 10:00:00;;;;;;;10.13;3.57;;;25.20;49.90;;;;;;5053336;28;20446;-44
2023/06/07 10:02:28;;;;;;;5.03;3.13;;;25.20;50.30;;;;;;5053506;28;20600;-45
2023/06/07 10:04:57;;;;;;;4.13;3.40;;;25.20;50.60;;;;;;5053424;28;20439;-48
2023/06/07 10:07:28;;;;;;;16.30;3.80;;;25.00;50.40;;;;;;5054164;28;20427;-46
2023/06/07 10:09:58;;;;;;;6.60;3.33;;;25.30;50.40;;;;;;5053492;28;20422;-46
2023/06/07 10:12:29;;;;;;;5.90;3.30;;;25.30;50.20;;;;;;5053668;28;20439;-48
2023/06/07 10:14:56;;;;;;;5.40;3.17;;;25.20;49.80;;;;;;5053430;28;20422;-45
2023/06/07 10:17:29;;;;;;;4.10;3.43;;;25.30;50.00;;;;;;5053312;28;20453;-48
2023/06/07 10:20:00;;;;;;;7.47;3.70;;;25.40;50.00;;;;;;5052922;28;20537;-46
2023/06/07 10:22:32;;;;;;;6.60;3.17;;;25.50;49.70;;;;;;5053391;28;20442;-44
2023/06/07 10:25:04;;;;;;;5.60;4.47;;;25.50;49.40;;;;;;5053258;28;20446;-46
2023/06/07 10:27:39;;;;;;;5.30;3.70;;;25.60;49.50;;;;;;5053474;28;20430;-46
2023/06/07 10:30:10;;;;;;;4.00;3.70;;;25.70;49.20;;;;;;5052829;28;20438;-49
2023/06/07 10:32:38;;;;;;;4.13;3.17;;;25.70;48.50;;;;;;5035377;28;20453;-47
2023/06/07 10:35:08;;;;;;;8.07;4.43;;;25.80;48.60;;;;;;5053233;28;20460;-45
2023/06/07 10:37:36;;;;;;;6.30;3.43;;;25.90;48.90;;;;;;5053050;28;20877;-44
2023/06/07 10:40:09;;;;;;;4.00;3.47;;;25.90;48.70;;;;;;5052589;28;20557;-45
2023/06/07 10:42:38;;;;;;;5.27;2.93;;;26.00;48.70;;;;;;5053304;28;20431;-46
2023/06/07 10:45:05;;;;;;;5.27;3.27;;;26.00;48.50;;;;;;5053039;28;20927;-46
2023/06/07 10:47:32;;;;;;;9.33;3.47;;;26.10;48.50;;;;;;5053163;28;20549;-47
2023/06/07 10:49:59;;;;;;;4.50;3.60;;;26.10;48.20;;;;;;5034283;28;20453;-45
2023/06/07 10:52:27;;;;;;;7.10;3.80;;;26.20;47.60;;;;;;5034492;28;20447;-44
2023/06/07 10:54:54;;;;;;;6.17;4.00;;;26.20;47.70;;;;;;5052232;28;20431;-45
2023/06/07 10:57:38;;;;;;;4.73;3.13;;;26.00;47.60;;;;;;5052680;28;20467;-45
2023/06/07 11:00:25;;;;;;;3.43;3.13;;;26.20;47.80;;;;;;5051060;28;20486;-47
2023/06/07 11:02:51;;;;;;;5.80;3.23;;;25.90;46.90;;;;;;5052847;28;20446;-42
2023/06/07 11:05:19;;;;;;;4.88;3.20;;;26.20;47.40;;;;;;5051556;28;20432;-49
2023/06/07 11:07:47;;;;;;;9.67;3.73;;;26.50;46.50;;;;;;5052445;28;20202;-45
2023/06/07 11:10:32;;;;;;;4.90;3.67;;;26.30;46.80;;;;;;5052005;28;20443;-45
2023/06/07 11:13:01;;;;;;;4.60;3.60;;;26.40;46.70;;;;;;5052052;28;20783;-46
2023/06/07 11:15:35;;;;;;;6.10;2.80;;;26.30;46.90;;;;;;5052192;28;20462;-45
2023/06/07 11:18:04;;;;;;;5.23;4.13;;;26.30;46.80;;;;;;5052019;28;20434;-46
2023/06/07 11:20:51;;;;;;;6.40;3.13;;;26.30;46.90;;;;;;5051940;28;20464;-45
2023/06/07 11:23:22;;;;;;;6.30;3.63;;;26.40;46.60;;;;;;5052108;28;20474;-46
2023/06/07 11:25:50;;;;;;;7.73;3.10;;;26.30;46.00;;;;;;5034246;28;20477;-45
2023/06/07 11:28:22;;;;;;;5.17;3.57;;;26.40;45.90;;;;;;5051734;28;20798;-46
2023/06/07 11:30:49;;;;;;;5.50;3.03;;;26.50;45.90;;;;;;5052206;28;20431;-46
2023/06/07 11:33:16;;;;;;;9.30;3.70;;;26.60;45.80;;;;;;5052123;28;20796;-46
2023/06/07 11:35:43;;;;;;;5.33;3.67;;;26.60;45.70;;;;;;5051726;28;20774;-45
2023/06/07 11:38:11;;;;;;;8.30;3.23;;;26.70;45.80;;;;;;5051789;28;20478;-46
2023/06/07 11:40:37;;;;;;;3.43;2.90;;;26.80;45.90;;;;;;5051988;28;20429;-46
2023/06/07 11:43:04;;;;;;;7.33;3.17;;;26.90;45.70;;;;;;5052073;28;20446;-45
2023/06/07 11:45:33;;;;;;;6.93;3.33;;;27.00;45.80;;;;;;5051862;28;20477;-49
2023/06/07 11:48:01;;;;;;;6.27;3.53;;;26.80;45.30;;;;;;5051961;28;20445;-48
2023/06/07 11:50:28;;;;;;;5.80;3.70;;;27.20;45.30;;;;;;5051842;28;20424;-48
2023/06/07 11:52:55;;;;;;;5.30;3.60;;;27.00;44.60;;;;;;5051840;28;20446;-48
2023/06/07 11:55:22;;;;;;;4.30;3.10;;;27.30;44.60;;;;;;5051720;28;20505;-47
2023/06/07 11:57:52;;;;;;;4.70;3.50;;;27.20;44.60;;;;;;5051816;28;20496;-48
2023/06/07 12:00:20;;;;;;;7.80;3.33;;;27.30;44.80;;;;;;5051546;28;20482;-48
2023/06/07 12:02:51;;;;;;;6.60;3.13;;;27.30;44.80;;;;;;5052226;28;20526;-48
2023/06/07 12:05:18;;;;;;;3.30;3.00;;;27.30;44.60;;;;;;5051839;28;20424;-49
2023/06/07 12:07:53;;;;;;;4.27;2.70;;;27.30;44.10;;;;;;5051141;28;20723;-48
2023/06/07 12:10:24;;;;;;;4.27;3.60;;;27.40;44.30;;;;;;5051263;28;20432;-49
2023/06/07 12:13:11;;;;;;;3.03;2.73;;;27.40;44.60;;;;;;5051757;28;20434;-48
2023/06/07 12:15:46;;;;;;;10.83;3.80;;;27.40;44.70;;;;;;5051732;28;20463;-46
2023/06/07 12:18:15;;;;;;;5.30;3.20;;;27.30;44.90;;;;;;5051461;28;21004;-48
2023/06/07 12:20:42;;;;;;;12.60;3.50;;;26.90;44.50;;;;;;5051973;28;20535;-47
2023/06/07 12:23:10;;;;;;;4.97;3.33;;;27.20;44.80;;;;;;5052103;28;20438;-48
2023/06/07 12:25:36;;;;;;;4.20;3.30;;;27.20;44.90;;;;;;5033369;28;21014;-47
2023/06/07 12:28:07;;;;;;;6.37;3.63;;;27.10;44.60;;;;;;5051600;28;20436;-48
2023/06/07 12:30:35;;;;;;;3.27;2.97;;;27.10;45.10;;;;;;5051499;28;20427;-50
2023/06/07 12:33:01;;;;;;;4.00;3.00;;;27.00;44.20;;;;;;5051929;28;20439;-48
2023/06/07 12:35:38;;;;;;;5.80;3.17;;;26.90;44.40;;;;;;5051636;28;20552;-48
2023/06/07 12:38:05;;;;;;;4.40;2.73;;;27.00;44.80;;;;;;5052029;28;20438;-49
2023/06/07 12:40:33;;;;;;;3.60;3.20;;;27.00;44.80;;;;;;5052715;28;20553;-48
2023/06/07 12:43:00;;;;;;;7.87;3.30;;;27.00;45.00;;;;;;5052154;28;20465;-48
2023/06/07 12:45:27;;;;;;;4.40;3.57;;;27.00;45.20;;;;;;5052079;28;20474;-48
2023/06/07 12:47:54;;;;;;;4.03;3.33;;;27.00;45.00;;;;;;5052888;28;20426;-48
2023/06/07 12:50:21;;;;;;;4.13;2.90;;;26.90;44.90;;;;;;5052800;28;20434;-48
2023/06/07 12:52:50;;;;;;;4.67;3.27;;;26.70;44.70;;;;;;5052746;28;20446;-48